sensor_id;sensor_type;location;lat;lon;timestamp;pressure;altitude;pressure_sealevel;temperature;humidity
77723;BME280;67811;42.656;23.394;2024-01-25T00:01:52;95621.91;;;2.40;72.18
77723;BME280;67811;42.656;23.394;2024-01-25T00:05:58;95623.16;;;2.57;68.93
77723;BME280;67811;42.656;23.394;2024-01-25T00:10:03;95618.06;;;2.55;70.60
77723;BME280;67811;42.656;23.394;2024-01-25T00:14:08;95595.13;;;2.59;67.28
77723;BME280;67811;42.656;23.394;2024-01-25T00:18:14;95542.13;;;1.80;69.68
77723;BME280;67811;42.656;23.394;2024-01-25T00:22:19;95521.72;;;1.51;71.69
77723;BME280;67811;42.656;23.394;2024-01-25T00:26:24;95520.28;;;1.58;71.97
77723;BME280;67811;42.656;23.394;2024-01-25T00:30:29;95509.13;;;1.68;70.80
77723;BME280;67811;42.656;23.394;2024-01-25T00:34:35;95525.97;;;1.86;69.42
77723;BME280;67811;42.656;23.394;2024-01-25T00:38:41;95518.09;;;1.97;70.71
77723;BME280;67811;42.656;23.394;2024-01-25T00:42:47;95496.84;;;2.34;67.77
77723;BME280;67811;42.656;23.394;2024-01-25T00:46:52;95485.94;;;2.29;67.20
77723;BME280;67811;42.656;23.394;2024-01-25T00:50:58;95482.16;;;2.22;67.01
77723;BME280;67811;42.656;23.394;2024-01-25T00:55:04;95498.06;;;2.30;66.13
77723;BME280;67811;42.656;23.394;2024-01-25T00:59:10;95510.31;;;2.29;67.72
77723;BME280;67811;42.656;23.394;2024-01-25T01:03:20;95516.44;;;2.40;68.80
77723;BME280;67811;42.656;23.394;2024-01-25T01:07:26;95523.28;;;2.31;70.07
77723;BME280;67811;42.656;23.394;2024-01-25T01:11:31;95519.34;;;2.36;69.51
77723;BME280;67811;42.656;23.394;2024-01-25T01:15:37;95491.03;;;2.62;69.71
77723;BME280;67811;42.656;23.394;2024-01-25T01:19:42;95476.72;;;2.46;71.87
77723;BME280;67811;42.656;23.394;2024-01-25T01:23:47;95461.41;;;2.41;71.48
77723;BME280;67811;42.656;23.394;2024-01-25T01:27:53;95447.47;;;2.73;68.04
77723;BME280;67811;42.656;23.394;2024-01-25T01:31:58;95470.66;;;2.45;69.84
77723;BME280;67811;42.656;23.394;2024-01-25T01:36:03;95456.47;;;2.59;68.60
77723;BME280;67811;42.656;23.394;2024-01-25T01:40:09;95451.09;;;2.60;66.94
77723;BME280;67811;42.656;23.394;2024-01-25T01:44:15;95444.22;;;2.59;68.75
77723;BME280;67811;42.656;23.394;2024-01-25T01:48:20;95449.75;;;2.66;68.76
77723;BME280;67811;42.656;23.394;2024-01-25T01:52:25;95440.63;;;2.60;69.82
77723;BME280;67811;42.656;23.394;2024-01-25T01:56:31;95421.66;;;2.68;69.32
77723;BME280;67811;42.656;23.394;2024-01-25T02:00:37;95417.41;;;2.67;70.20
77723;BME280;67811;42.656;23.394;2024-01-25T02:04:43;95421.50;;;2.60;71.46
77723;BME280;67811;42.656;23.394;2024-01-25T02:08:48;95424.81;;;2.62;71.36
77723;BME280;67811;42.656;23.394;2024-01-25T02:12:54;95411.72;;;2.62;70.60
77723;BME280;67811;42.656;23.394;2024-01-25T02:16:59;95407.13;;;2.33;71.51
77723;BME280;67811;42.656;23.394;2024-01-25T02:21:04;95433.09;;;2.46;71.90
77723;BME280;67811;42.656;23.394;2024-01-25T02:25:10;95425.06;;;2.38;72.17
77723;BME280;67811;42.656;23.394;2024-01-25T02:29:15;95415.78;;;2.34;72.35
77723;BME280;67811;42.656;23.394;2024-01-25T02:33:20;95401.00;;;2.44;71.17
77723;BME280;67811;42.656;23.394;2024-01-25T02:37:26;95404.47;;;2.13;73.46
77723;BME280;67811;42.656;23.394;2024-01-25T02:41:32;95409.53;;;2.04;73.60
77723;BME280;67811;42.656;23.394;2024-01-25T02:45:37;95409.84;;;2.11;74.20
77723;BME280;67811;42.656;23.394;2024-01-25T02:49:43;95404.03;;;2.07;73.78
77723;BME280;67811;42.656;23.394;2024-01-25T02:53:48;95397.91;;;2.18;73.71
77723;BME280;67811;42.656;23.394;2024-01-25T02:57:53;95397.41;;;2.24;73.75
77723;BME280;67811;42.656;23.394;2024-01-25T03:01:58;95396.13;;;2.19;74.35
77723;BME280;67811;42.656;23.394;2024-01-25T03:06:05;95386.97;;;2.24;73.62
77723;BME280;67811;42.656;23.394;2024-01-25T03:10:11;95386.38;;;2.42;72.28
77723;BME280;67811;42.656;23.394;2024-01-25T03:14:17;95383.91;;;2.40;71.72
77723;BME280;67811;42.656;23.394;2024-01-25T03:18:22;95384.19;;;2.37;71.94
77723;BME280;67811;42.656;23.394;2024-01-25T03:22:27;95368.53;;;2.47;72.28
77723;BME280;67811;42.656;23.394;2024-01-25T03:26:33;95364.47;;;2.33;72.33
77723;BME280;67811;42.656;23.394;2024-01-25T03:30:38;95368.66;;;2.45;75.77
77723;BME280;67811;42.656;23.394;2024-01-25T03:34:43;95391.09;;;2.69;75.55
77723;BME280;67811;42.656;23.394;2024-01-25T03:38:49;95398.19;;;2.78;74.87
77723;BME280;67811;42.656;23.394;2024-01-25T03:42:54;95375.22;;;3.22;76.79
77723;BME280;67811;42.656;23.394;2024-01-25T03:46:59;95342.28;;;3.98;75.88
77723;BME280;67811;42.656;23.394;2024-01-25T03:51:04;95344.31;;;4.43;74.63
77723;BME280;67811;42.656;23.394;2024-01-25T03:55:10;95343.22;;;4.83;72.60
77723;BME280;67811;42.656;23.394;2024-01-25T03:59:15;95315.59;;;5.16;70.96
77723;BME280;67811;42.656;23.394;2024-01-25T04:03:20;95328.09;;;5.32;69.91
77723;BME280;67811;42.656;23.394;2024-01-25T04:07:26;95304.56;;;5.40;69.10
77723;BME280;67811;42.656;23.394;2024-01-25T04:11:31;95311.25;;;5.52;68.46
77723;BME280;67811;42.656;23.394;2024-01-25T04:15:36;95314.03;;;5.50;67.83
77723;BME280;67811;42.656;23.394;2024-01-25T04:19:41;95307.47;;;5.37;68.04
77723;BME280;67811;42.656;23.394;2024-01-25T04:23:47;95304.88;;;5.27;68.58
77723;BME280;67811;42.656;23.394;2024-01-25T04:27:52;95307.25;;;5.48;67.69
77723;BME280;67811;42.656;23.394;2024-01-25T04:31:57;95307.47;;;5.54;66.92
77723;BME280;67811;42.656;23.394;2024-01-25T04:36:03;95309.44;;;5.52;66.76
77723;BME280;67811;42.656;23.394;2024-01-25T04:40:09;95303.97;;;5.46;67.13
77723;BME280;67811;42.656;23.394;2024-01-25T04:44:14;95321.19;;;5.31;67.54
77723;BME280;67811;42.656;23.394;2024-01-25T04:48:19;95334.53;;;5.19;67.03
77723;BME280;67811;42.656;23.394;2024-01-25T04:52:25;95329.03;;;5.13;67.15
77723;BME280;67811;42.656;23.394;2024-01-25T04:56:30;95351.91;;;4.93;67.34
77723;BME280;67811;42.656;23.394;2024-01-25T05:00:35;95348.66;;;4.71;67.85
77723;BME280;67811;42.656;23.394;2024-01-25T05:04:41;95358.09;;;4.55;67.84
77723;BME280;67811;42.656;23.394;2024-01-25T05:08:46;95369.19;;;4.29;68.31
77723;BME280;67811;42.656;23.394;2024-01-25T05:12:51;95378.13;;;4.27;68.67
77723;BME280;67811;42.656;23.394;2024-01-25T05:16:56;95373.31;;;4.22;68.31
77723;BME280;67811;42.656;23.394;2024-01-25T05:21:02;95402.69;;;4.55;67.10
77723;BME280;67811;42.656;23.394;2024-01-25T05:25:08;95405.03;;;4.67;66.20
77723;BME280;67811;42.656;23.394;2024-01-25T05:29:13;95405.13;;;4.95;64.78
77723;BME280;67811;42.656;23.394;2024-01-25T05:33:18;95394.56;;;5.05;64.43
77723;BME280;67811;42.656;23.394;2024-01-25T05:37:24;95395.66;;;5.12;64.07
77723;BME280;67811;42.656;23.394;2024-01-25T05:41:29;95395.78;;;5.20;63.79
77723;BME280;67811;42.656;23.394;2024-01-25T05:45:34;95408.13;;;5.37;62.69
77723;BME280;67811;42.656;23.394;2024-01-25T05:49:40;95414.53;;;5.35;62.55
77723;BME280;67811;42.656;23.394;2024-01-25T05:53:45;95422.91;;;5.48;61.87
77723;BME280;67811;42.656;23.394;2024-01-25T05:57:50;95424.41;;;5.50;62.37
77723;BME280;67811;42.656;23.394;2024-01-25T06:01:56;95424.31;;;5.42;62.60
77723;BME280;67811;42.656;23.394;2024-01-25T06:06:01;95434.41;;;5.37;62.28
77723;BME280;67811;42.656;23.394;2024-01-25T06:10:07;95429.59;;;5.33;62.67
77723;BME280;67811;42.656;23.394;2024-01-25T06:14:12;95427.66;;;5.35;62.72
77723;BME280;67811;42.656;23.394;2024-01-25T06:18:18;95435.59;;;5.52;61.84
77723;BME280;67811;42.656;23.394;2024-01-25T06:22:23;95429.75;;;5.59;61.91
77723;BME280;67811;42.656;23.394;2024-01-25T06:26:28;95445.84;;;5.55;62.22
77723;BME280;67811;42.656;23.394;2024-01-25T06:30:33;95432.81;;;5.54;62.13
77723;BME280;67811;42.656;23.394;2024-01-25T06:34:39;95425.69;;;5.46;62.25
77723;BME280;67811;42.656;23.394;2024-01-25T06:38:44;95429.31;;;5.36;62.90
77723;BME280;67811;42.656;23.394;2024-01-25T06:42:49;95424.50;;;5.59;62.39
77723;BME280;67811;42.656;23.394;2024-01-25T06:46:55;95410.66;;;5.66;62.25
77723;BME280;67811;42.656;23.394;2024-01-25T06:51:00;95398.06;;;5.60;62.45
77723;BME280;67811;42.656;23.394;2024-01-25T06:55:05;95393.75;;;5.69;62.27
77723;BME280;67811;42.656;23.394;2024-01-25T06:59:11;95391.88;;;5.79;62.03
77723;BME280;67811;42.656;23.394;2024-01-25T07:03:16;95388.09;;;5.91;61.42
77723;BME280;67811;42.656;23.394;2024-01-25T07:07:21;95397.03;;;5.98;61.17
77723;BME280;67811;42.656;23.394;2024-01-25T07:11:27;95391.78;;;5.98;61.03
77723;BME280;67811;42.656;23.394;2024-01-25T07:15:32;95398.78;;;6.07;60.82
77723;BME280;67811;42.656;23.394;2024-01-25T07:19:37;95401.13;;;6.11;60.31
77723;BME280;67811;42.656;23.394;2024-01-25T07:23:42;95409.91;;;6.19;59.91
77723;BME280;67811;42.656;23.394;2024-01-25T07:27:48;95424.22;;;6.17;60.32
77723;BME280;67811;42.656;23.394;2024-01-25T07:31:53;95418.94;;;6.17;59.78
77723;BME280;67811;42.656;23.394;2024-01-25T07:35:58;95437.50;;;6.15;59.91
77723;BME280;67811;42.656;23.394;2024-01-25T07:40:04;95443.13;;;6.20;59.30
77723;BME280;67811;42.656;23.394;2024-01-25T07:44:09;95434.13;;;6.23;59.10
77723;BME280;67811;42.656;23.394;2024-01-25T07:48:15;95440.66;;;6.19;59.58
77723;BME280;67811;42.656;23.394;2024-01-25T07:52:20;95457.13;;;6.21;59.71
77723;BME280;67811;42.656;23.394;2024-01-25T07:56:25;95460.66;;;6.29;58.66
77723;BME280;67811;42.656;23.394;2024-01-25T08:00:31;95454.34;;;6.58;58.42
77723;BME280;67811;42.656;23.394;2024-01-25T08:04:36;95458.38;;;7.06;56.55
77723;BME280;67811;42.656;23.394;2024-01-25T08:08:41;95476.69;;;6.90;56.98
77723;BME280;67811;42.656;23.394;2024-01-25T08:12:46;95459.16;;;6.80;57.11
77723;BME280;67811;42.656;23.394;2024-01-25T08:16:52;95459.94;;;6.73;59.12
77723;BME280;67811;42.656;23.394;2024-01-25T08:20:57;95460.09;;;6.97;57.27
77723;BME280;67811;42.656;23.394;2024-01-25T08:25:03;95467.59;;;6.84;56.90
77723;BME280;67811;42.656;23.394;2024-01-25T08:29:08;95462.47;;;6.82;56.88
77723;BME280;67811;42.656;23.394;2024-01-25T08:33:15;95464.50;;;6.89;56.54
77723;BME280;67811;42.656;23.394;2024-01-25T08:37:20;95457.59;;;6.88;55.83
77723;BME280;67811;42.656;23.394;2024-01-25T08:41:26;95452.25;;;6.79;55.18
77723;BME280;67811;42.656;23.394;2024-01-25T08:45:31;95463.09;;;6.76;54.91
77723;BME280;67811;42.656;23.394;2024-01-25T08:49:38;95469.03;;;6.78;55.33
77723;BME280;67811;42.656;23.394;2024-01-25T08:53:43;95467.97;;;6.89;55.08
77723;BME280;67811;42.656;23.394;2024-01-25T08:57:49;95471.25;;;6.91;54.72
77723;BME280;67811;42.656;23.394;2024-01-25T09:01:54;95485.09;;;7.11;54.58
77723;BME280;67811;42.656;23.394;2024-01-25T09:06:00;95451.34;;;7.40;54.24
77723;BME280;67811;42.656;23.394;2024-01-25T09:10:05;95459.31;;;7.49;53.30
77723;BME280;67811;42.656;23.394;2024-01-25T09:14:11;95456.50;;;7.50;54.33
77723;BME280;67811;42.656;23.394;2024-01-25T09:18:16;95458.38;;;8.00;53.08
77723;BME280;67811;42.656;23.394;2024-01-25T09:22:21;95441.72;;;8.00;52.65
77723;BME280;67811;42.656;23.394;2024-01-25T09:26:26;95440.72;;;7.92;52.77
77723;BME280;67811;42.656;23.394;2024-01-25T09:30:32;95451.38;;;7.75;53.35
77723;BME280;67811;42.656;23.394;2024-01-25T09:34:38;95440.56;;;7.60;53.78
77723;BME280;67811;42.656;23.394;2024-01-25T09:38:43;95431.47;;;8.55;51.70
77723;BME280;67811;42.656;23.394;2024-01-25T09:42:48;95446.97;;;9.40;49.26
77723;BME280;67811;42.656;23.394;2024-01-25T09:46:54;95437.75;;;8.79;50.08
77723;BME280;67811;42.656;23.394;2024-01-25T09:50:59;95436.72;;;8.39;51.21
77723;BME280;67811;42.656;23.394;2024-01-25T09:55:07;95426.84;;;8.49;51.47
77723;BME280;67811;42.656;23.394;2024-01-25T09:59:12;95422.69;;;8.38;51.54
77723;BME280;67811;42.656;23.394;2024-01-25T10:03:18;95416.06;;;8.26;51.98
77723;BME280;67811;42.656;23.394;2024-01-25T10:07:39;95411.91;;;8.15;52.18
77723;BME280;67811;42.656;23.394;2024-01-25T10:11:44;95398.22;;;8.20;52.43
77723;BME280;67811;42.656;23.394;2024-01-25T10:15:49;95390.63;;;8.09;52.64
77723;BME280;67811;42.656;23.394;2024-01-25T10:19:55;95385.66;;;8.06;53.09
77723;BME280;67811;42.656;23.394;2024-01-25T10:24:00;95379.38;;;8.07;52.83
77723;BME280;67811;42.656;23.394;2024-01-25T10:28:06;95379.31;;;8.57;51.61
77723;BME280;67811;42.656;23.394;2024-01-25T10:32:12;95361.97;;;8.55;51.78
77723;BME280;67811;42.656;23.394;2024-01-25T10:36:18;95372.69;;;8.78;51.55
77723;BME280;67811;42.656;23.394;2024-01-25T10:40:24;95349.22;;;9.07;50.54
77723;BME280;67811;42.656;23.394;2024-01-25T10:44:29;95361.56;;;9.15;50.27
77723;BME280;67811;42.656;23.394;2024-01-25T10:48:34;95349.22;;;8.83;50.92
77723;BME280;67811;42.656;23.394;2024-01-25T10:52:41;95349.91;;;8.77;51.04
77723;BME280;67811;42.656;23.394;2024-01-25T10:56:47;95339.31;;;8.93;51.22
77723;BME280;67811;42.656;23.394;2024-01-25T11:00:55;95341.13;;;8.92;50.90
77723;BME280;67811;42.656;23.394;2024-01-25T11:05:01;95327.47;;;9.36;49.74
77723;BME280;67811;42.656;23.394;2024-01-25T11:09:07;95342.66;;;9.42;49.18
77723;BME280;67811;42.656;23.394;2024-01-25T11:13:14;95333.00;;;9.58;48.74
77723;BME280;67811;42.656;23.394;2024-01-25T11:17:22;95318.75;;;9.19;49.65
77723;BME280;67811;42.656;23.394;2024-01-25T11:21:29;95313.72;;;8.93;50.55
77723;BME280;67811;42.656;23.394;2024-01-25T11:25:36;95305.84;;;8.61;50.88
77723;BME280;67811;42.656;23.394;2024-01-25T11:29:42;95311.47;;;8.58;51.25
77723;BME280;67811;42.656;23.394;2024-01-25T11:33:47;95318.41;;;8.42;51.79
77723;BME280;67811;42.656;23.394;2024-01-25T11:37:53;95318.53;;;8.16;51.60
77723;BME280;67811;42.656;23.394;2024-01-25T11:41:58;95301.84;;;8.00;51.96
77723;BME280;67811;42.656;23.394;2024-01-25T11:46:04;95312.91;;;7.95;52.21
77723;BME280;67811;42.656;23.394;2024-01-25T11:50:11;95318.00;;;7.80;51.59
77723;BME280;67811;42.656;23.394;2024-01-25T11:54:17;95316.81;;;7.66;51.95
77723;BME280;67811;42.656;23.394;2024-01-25T11:58:23;95304.41;;;7.51;52.64
77723;BME280;67811;42.656;23.394;2024-01-25T12:02:31;95301.75;;;7.51;53.26
77723;BME280;67811;42.656;23.394;2024-01-25T12:06:36;95310.00;;;7.56;52.37
77723;BME280;67811;42.656;23.394;2024-01-25T12:10:42;95315.63;;;7.53;52.61
77723;BME280;67811;42.656;23.394;2024-01-25T12:14:47;95298.78;;;7.46;52.31
77723;BME280;67811;42.656;23.394;2024-01-25T12:18:53;95291.84;;;7.45;52.64
77723;BME280;67811;42.656;23.394;2024-01-25T12:22:59;95289.25;;;7.53;52.85
77723;BME280;67811;42.656;23.394;2024-01-25T12:27:04;95284.63;;;7.63;52.50
77723;BME280;67811;42.656;23.394;2024-01-25T12:31:09;95264.38;;;7.80;52.10
77723;BME280;67811;42.656;23.394;2024-01-25T12:35:14;95252.88;;;8.54;49.93
77723;BME280;67811;42.656;23.394;2024-01-25T12:39:20;95247.72;;;8.69;49.05
77723;BME280;67811;42.656;23.394;2024-01-25T12:43:25;95248.31;;;8.95;48.10
77723;BME280;67811;42.656;23.394;2024-01-25T12:47:30;95233.72;;;9.39;46.82
77723;BME280;67811;42.656;23.394;2024-01-25T12:51:36;95240.63;;;9.48;46.37
77723;BME280;67811;42.656;23.394;2024-01-25T12:55:42;95219.31;;;9.95;45.42
77723;BME280;67811;42.656;23.394;2024-01-25T12:59:47;95206.13;;;10.33;44.25
77723;BME280;67811;42.656;23.394;2024-01-25T13:03:53;95194.69;;;10.10;44.91
77723;BME280;67811;42.656;23.394;2024-01-25T13:07:58;95199.69;;;10.04;44.17
77723;BME280;67811;42.656;23.394;2024-01-25T13:12:03;95186.53;;;9.96;44.15
77723;BME280;67811;42.656;23.394;2024-01-25T13:16:09;95201.22;;;10.22;43.47
77723;BME280;67811;42.656;23.394;2024-01-25T13:20:14;95195.22;;;10.28;43.24
77723;BME280;67811;42.656;23.394;2024-01-25T13:24:19;95202.53;;;9.80;44.07
77723;BME280;67811;42.656;23.394;2024-01-25T13:28:25;95208.28;;;9.61;44.87
77723;BME280;67811;42.656;23.394;2024-01-25T13:32:30;95225.34;;;9.27;45.82
77723;BME280;67811;42.656;23.394;2024-01-25T13:36:35;95203.69;;;9.32;45.85
77723;BME280;67811;42.656;23.394;2024-01-25T13:40:41;95201.31;;;9.14;46.21
77723;BME280;67811;42.656;23.394;2024-01-25T13:44:46;95199.34;;;9.08;46.49
77723;BME280;67811;42.656;23.394;2024-01-25T13:48:51;95200.56;;;8.89;46.93
77723;BME280;67811;42.656;23.394;2024-01-25T13:52:56;95209.75;;;8.62;47.89
77723;BME280;67811;42.656;23.394;2024-01-25T13:57:02;95204.63;;;8.68;47.71
77723;BME280;67811;42.656;23.394;2024-01-25T14:01:07;95223.78;;;8.70;47.39
77723;BME280;67811;42.656;23.394;2024-01-25T14:05:13;95235.69;;;8.58;48.29
77723;BME280;67811;42.656;23.394;2024-01-25T14:09:18;95240.44;;;8.79;47.64
77723;BME280;67811;42.656;23.394;2024-01-25T14:13:23;95246.91;;;8.68;48.37
77723;BME280;67811;42.656;23.394;2024-01-25T14:17:28;95250.06;;;8.39;48.74
77723;BME280;67811;42.656;23.394;2024-01-25T14:21:34;95251.56;;;8.09;49.95
77723;BME280;67811;42.656;23.394;2024-01-25T14:25:39;95250.91;;;7.99;50.21
77723;BME280;67811;42.656;23.394;2024-01-25T14:29:44;95240.34;;;7.99;50.58
77723;BME280;67811;42.656;23.394;2024-01-25T14:33:50;95232.91;;;7.95;52.06
77723;BME280;67811;42.656;23.394;2024-01-25T14:37:55;95224.19;;;7.70;51.33
77723;BME280;67811;42.656;23.394;2024-01-25T14:42:00;95237.47;;;7.44;51.86
77723;BME280;67811;42.656;23.394;2024-01-25T14:46:07;95234.75;;;7.19;52.54
77723;BME280;67811;42.656;23.394;2024-01-25T14:50:13;95222.72;;;7.08;53.17
77723;BME280;67811;42.656;23.394;2024-01-25T14:54:18;95224.97;;;6.95;53.48
77723;BME280;67811;42.656;23.394;2024-01-25T14:58:23;95223.97;;;6.88;53.57
77723;BME280;67811;42.656;23.394;2024-01-25T15:02:28;95228.19;;;6.73;54.22
77723;BME280;67811;42.656;23.394;2024-01-25T15:06:34;95218.13;;;6.68;54.19
77723;BME280;67811;42.656;23.394;2024-01-25T15:10:39;95207.56;;;6.60;54.00
77723;BME280;67811;42.656;23.394;2024-01-25T15:14:44;95205.56;;;6.54;54.23
77723;BME280;67811;42.656;23.394;2024-01-25T15:18:50;95196.66;;;6.55;54.37
77723;BME280;67811;42.656;23.394;2024-01-25T15:22:55;95207.50;;;6.52;54.96
77723;BME280;67811;42.656;23.394;2024-01-25T15:27:00;95213.47;;;6.54;54.44
77723;BME280;67811;42.656;23.394;2024-01-25T15:31:05;95228.41;;;6.53;54.87
77723;BME280;67811;42.656;23.394;2024-01-25T15:35:11;95242.25;;;6.55;54.94
77723;BME280;67811;42.656;23.394;2024-01-25T15:39:16;95237.81;;;6.56;54.38
77723;BME280;67811;42.656;23.394;2024-01-25T15:43:21;95252.09;;;6.53;55.43
77723;BME280;67811;42.656;23.394;2024-01-25T15:47:26;95252.94;;;6.54;55.24
77723;BME280;67811;42.656;23.394;2024-01-25T15:51:32;95260.97;;;6.52;55.79
77723;BME280;67811;42.656;23.394;2024-01-25T15:55:37;95262.41;;;6.47;56.18
77723;BME280;67811;42.656;23.394;2024-01-25T15:59:42;95250.78;;;6.49;56.48
77723;BME280;67811;42.656;23.394;2024-01-25T16:03:48;95263.38;;;6.38;57.23
77723;BME280;67811;42.656;23.394;2024-01-25T16:07:53;95262.69;;;6.36;57.53
77723;BME280;67811;42.656;23.394;2024-01-25T16:11:58;95275.47;;;6.30;58.08
77723;BME280;67811;42.656;23.394;2024-01-25T16:16:04;95268.19;;;6.24;58.43
77723;BME280;67811;42.656;23.394;2024-01-25T16:20:10;95289.19;;;6.16;59.28
77723;BME280;67811;42.656;23.394;2024-01-25T16:24:15;95288.22;;;6.17;59.67
77723;BME280;67811;42.656;23.394;2024-01-25T16:28:20;95280.78;;;6.13;60.09
77723;BME280;67811;42.656;23.394;2024-01-25T16:32:26;95283.34;;;6.04;60.12
77723;BME280;67811;42.656;23.394;2024-01-25T16:36:31;95291.38;;;6.03;60.09
77723;BME280;67811;42.656;23.394;2024-01-25T16:40:36;95282.03;;;5.91;60.60
77723;BME280;67811;42.656;23.394;2024-01-25T16:44:41;95293.13;;;5.94;60.59
77723;BME280;67811;42.656;23.394;2024-01-25T16:48:47;95298.22;;;5.96;60.67
77723;BME280;67811;42.656;23.394;2024-01-25T16:52:52;95303.09;;;5.91;61.46
77723;BME280;67811;42.656;23.394;2024-01-25T16:56:57;95324.00;;;6.10;64.81
77723;BME280;67811;42.656;23.394;2024-01-25T17:01:04;95338.22;;;5.99;61.50
77723;BME280;67811;42.656;23.394;2024-01-25T17:05:10;95334.22;;;5.95;61.42
77723;BME280;67811;42.656;23.394;2024-01-25T17:09:15;95340.75;;;5.91;61.99
77723;BME280;67811;42.656;23.394;2024-01-25T17:13:20;95346.63;;;6.03;62.05
77723;BME280;67811;42.656;23.394;2024-01-25T17:17:26;95342.53;;;5.91;62.02
77723;BME280;67811;42.656;23.394;2024-01-25T17:21:31;95362.22;;;5.87;62.48
77723;BME280;67811;42.656;23.394;2024-01-25T17:25:36;95351.41;;;5.90;62.64
77723;BME280;67811;42.656;23.394;2024-01-25T17:29:42;95365.53;;;5.89;63.06
77723;BME280;67811;42.656;23.394;2024-01-25T17:33:47;95359.56;;;5.87;62.88
77723;BME280;67811;42.656;23.394;2024-01-25T17:37:52;95363.22;;;6.03;64.32
77723;BME280;67811;42.656;23.394;2024-01-25T17:41:57;95361.09;;;5.89;63.01
77723;BME280;67811;42.656;23.394;2024-01-25T17:46:03;95359.88;;;5.84;63.34
77723;BME280;67811;42.656;23.394;2024-01-25T17:50:09;95360.09;;;6.00;64.47
77723;BME280;67811;42.656;23.394;2024-01-25T17:54:15;95351.31;;;5.81;63.33
77723;BME280;67811;42.656;23.394;2024-01-25T17:58:20;95349.81;;;5.79;63.06
77723;BME280;67811;42.656;23.394;2024-01-25T18:02:25;95350.84;;;5.68;63.60
77723;BME280;67811;42.656;23.394;2024-01-25T18:06:30;95356.25;;;5.67;63.07
77723;BME280;67811;42.656;23.394;2024-01-25T18:10:36;95347.00;;;5.63;63.19
77723;BME280;67811;42.656;23.394;2024-01-25T18:14:41;95333.72;;;5.64;62.96
77723;BME280;67811;42.656;23.394;2024-01-25T18:18:46;95338.00;;;5.65;62.88
77723;BME280;67811;42.656;23.394;2024-01-25T18:22:52;95341.38;;;5.58;62.80
77723;BME280;67811;42.656;23.394;2024-01-25T18:26:57;95357.53;;;5.63;62.68
77723;BME280;67811;42.656;23.394;2024-01-25T18:31:02;95357.09;;;5.67;62.26
77723;BME280;67811;42.656;23.394;2024-01-25T18:35:08;95370.34;;;5.66;61.74
77723;BME280;67811;42.656;23.394;2024-01-25T18:39:13;95370.66;;;5.63;62.13
77723;BME280;67811;42.656;23.394;2024-01-25T18:43:18;95360.22;;;5.71;61.94
77723;BME280;67811;42.656;23.394;2024-01-25T18:47:24;95358.19;;;5.65;61.88
77723;BME280;67811;42.656;23.394;2024-01-25T18:51:29;95356.84;;;5.61;61.52
77723;BME280;67811;42.656;23.394;2024-01-25T18:55:34;95352.94;;;5.65;61.37
77723;BME280;67811;42.656;23.394;2024-01-25T18:59:40;95346.41;;;5.69;60.52
77723;BME280;67811;42.656;23.394;2024-01-25T19:03:46;95347.84;;;5.63;60.54
77723;BME280;67811;42.656;23.394;2024-01-25T19:07:51;95322.69;;;5.61;60.16
77723;BME280;67811;42.656;23.394;2024-01-25T19:11:56;95324.25;;;5.71;59.66
77723;BME280;67811;42.656;23.394;2024-01-25T19:16:02;95335.22;;;5.67;59.56
77723;BME280;67811;42.656;23.394;2024-01-25T19:20:08;95333.13;;;5.70;59.50
77723;BME280;67811;42.656;23.394;2024-01-25T19:24:13;95319.31;;;5.68;59.22
77723;BME280;67811;42.656;23.394;2024-01-25T19:28:18;95336.44;;;5.72;58.83
77723;BME280;67811;42.656;23.394;2024-01-25T19:32:24;95344.84;;;5.76;58.69
77723;BME280;67811;42.656;23.394;2024-01-25T19:36:29;95345.44;;;5.70;58.74
77723;BME280;67811;42.656;23.394;2024-01-25T19:40:35;95351.53;;;5.70;59.18
77723;BME280;67811;42.656;23.394;2024-01-25T19:44:40;95346.56;;;5.67;59.99
77723;BME280;67811;42.656;23.394;2024-01-25T19:48:46;95341.91;;;5.61;60.15
77723;BME280;67811;42.656;23.394;2024-01-25T19:52:51;95351.72;;;5.59;60.16
77723;BME280;67811;42.656;23.394;2024-01-25T19:56:57;95340.44;;;5.49;60.49
77723;BME280;67811;42.656;23.394;2024-01-25T20:01:02;95353.59;;;5.49;60.62
77723;BME280;67811;42.656;23.394;2024-01-25T20:05:08;95360.41;;;5.42;61.15
77723;BME280;67811;42.656;23.394;2024-01-25T20:09:14;95361.16;;;5.34;61.59
77723;BME280;67811;42.656;23.394;2024-01-25T20:13:19;95354.28;;;5.23;61.95
77723;BME280;67811;42.656;23.394;2024-01-25T20:17:24;95360.31;;;5.34;61.60
77723;BME280;67811;42.656;23.394;2024-01-25T20:21:29;95367.13;;;5.26;61.93
77723;BME280;67811;42.656;23.394;2024-01-25T20:25:35;95345.44;;;5.24;62.04
77723;BME280;67811;42.656;23.394;2024-01-25T20:29:40;95362.66;;;5.37;61.92
77723;BME280;67811;42.656;23.394;2024-01-25T20:33:45;95364.88;;;5.32;62.06
77723;BME280;67811;42.656;23.394;2024-01-25T20:37:50;95363.00;;;5.24;62.00
77723;BME280;67811;42.656;23.394;2024-01-25T20:41:56;95367.03;;;5.18;61.89
77723;BME280;67811;42.656;23.394;2024-01-25T20:46:01;95359.97;;;5.19;61.76
77723;BME280;67811;42.656;23.394;2024-01-25T20:50:07;95345.88;;;5.10;62.19
77723;BME280;67811;42.656;23.394;2024-01-25T20:54:12;95355.44;;;5.11;61.80
77723;BME280;67811;42.656;23.394;2024-01-25T20:58:17;95339.41;;;5.05;61.38
77723;BME280;67811;42.656;23.394;2024-01-25T21:02:23;95339.16;;;4.98;61.85
77723;BME280;67811;42.656;23.394;2024-01-25T21:06:28;95336.53;;;4.98;61.37
77723;BME280;67811;42.656;23.394;2024-01-25T21:10:34;95335.47;;;4.91;61.71
77723;BME280;67811;42.656;23.394;2024-01-25T21:14:40;95344.91;;;4.84;61.49
77723;BME280;67811;42.656;23.394;2024-01-25T21:18:45;95353.59;;;4.84;61.11
77723;BME280;67811;42.656;23.394;2024-01-25T21:22:50;95355.25;;;4.85;61.06
77723;BME280;67811;42.656;23.394;2024-01-25T21:26:55;95355.53;;;4.82;60.92
77723;BME280;67811;42.656;23.394;2024-01-25T21:31:01;95361.19;;;4.78;60.58
77723;BME280;67811;42.656;23.394;2024-01-25T21:35:06;95359.97;;;4.72;61.17
77723;BME280;67811;42.656;23.394;2024-01-25T21:39:12;95371.19;;;4.74;60.97